createdAt,value
2022-07-30T00:02:36.422Z,18.49
2022-07-30T00:07:39.695Z,18.44
2022-07-30T00:12:43.076Z,18.47
2022-07-30T00:17:46.758Z,18.48
2022-07-30T00:22:52.833Z,18.51
2022-07-30T00:27:56.400Z,18.50
2022-07-30T00:33:00.996Z,18.47
2022-07-30T00:38:04.585Z,18.44
2022-07-30T00:43:08.698Z,18.42
2022-07-30T00:48:13.804Z,18.39
2022-07-30T00:53:17.575Z,18.37
2022-07-30T00:58:21.007Z,18.35
2022-07-30T01:03:25.269Z,18.35
2022-07-30T01:08:28.440Z,18.38
2022-07-30T01:13:31.669Z,18.44
2022-07-30T01:18:55.323Z,18.49
2022-07-30T01:24:27.049Z,18.50
2022-07-30T01:29:32.159Z,18.49
2022-07-30T01:34:36.181Z,18.47
2022-07-30T01:39:41.714Z,18.49
2022-07-30T01:44:47.863Z,18.51
2022-07-30T01:49:53.007Z,18.53
2022-07-30T01:55:05.170Z,18.53
2022-07-30T02:00:20.268Z,18.51
2022-07-30T02:05:27.659Z,18.48
2022-07-30T02:10:52.865Z,18.48
2022-07-30T02:16:14.312Z,18.49
2022-07-30T02:21:19.918Z,18.49
2022-07-30T02:26:26.285Z,18.47
2022-07-30T02:31:32.200Z,18.45
2022-07-30T02:36:37.612Z,18.43
2022-07-30T02:41:49.251Z,18.40
2022-07-30T02:46:54.161Z,18.39
2022-07-30T02:52:22.131Z,18.35
2022-07-30T02:57:29.429Z,18.33
2022-07-30T03:02:43.628Z,18.29
2022-07-30T03:07:47.942Z,18.28
2022-07-30T03:12:55.470Z,18.25
2022-07-30T03:18:00.916Z,18.24
2022-07-30T03:23:04.932Z,18.22
2022-07-30T03:28:09.145Z,18.20
2022-07-30T03:33:13.276Z,18.19
2022-07-30T03:38:23.915Z,18.17
2022-07-30T03:43:33.140Z,18.18
2022-07-30T03:48:38.983Z,18.18
2022-07-30T03:53:43.120Z,18.19
2022-07-30T03:59:05.645Z,18.22
2022-07-30T04:04:11.805Z,18.26
2022-07-30T04:09:16.491Z,18.32
2022-07-30T04:14:29.040Z,18.37
2022-07-30T04:19:45.030Z,18.40
2022-07-30T04:24:49.779Z,18.47
2022-07-30T04:29:54.473Z,18.55
2022-07-30T04:34:57.980Z,18.64
2022-07-30T04:40:47.628Z,18.74
2022-07-30T04:46:03.852Z,18.80
2022-07-30T04:51:10.023Z,18.84
2022-07-30T04:56:14.577Z,18.93
2022-07-30T05:01:24.435Z,19.04
2022-07-30T05:06:44.212Z,19.09
2022-07-30T05:12:13.474Z,19.12
2022-07-30T05:17:17.352Z,19.20
2022-07-30T05:22:20.508Z,19.25
2022-07-30T05:27:23.864Z,19.33
2022-07-30T05:32:31.447Z,19.34
2022-07-30T05:37:44.301Z,19.41
2022-07-30T05:42:47.946Z,19.47
2022-07-30T05:47:51.251Z,19.53
2022-07-30T05:53:00.327Z,19.58
2022-07-30T05:58:23.410Z,19.64
2022-07-30T06:03:26.685Z,19.70
2022-07-30T06:08:57.049Z,19.79
2022-07-30T06:14:01.404Z,19.90
2022-07-30T06:19:19.760Z,19.94
2022-07-30T06:24:29.020Z,20.02
2022-07-30T06:29:54.979Z,20.10
2022-07-30T06:35:04.325Z,20.18
2022-07-30T06:40:09.608Z,20.22
2022-07-30T06:45:45.061Z,20.18
2022-07-30T06:51:21.033Z,20.27
2022-07-30T06:56:26.451Z,20.35
2022-07-30T07:01:39.577Z,20.39
2022-07-30T07:06:43.389Z,20.43
2022-07-30T07:12:00.677Z,20.38
2022-07-30T07:17:10.325Z,20.44
2022-07-30T07:22:49.428Z,20.54
2022-07-30T07:28:10.883Z,20.64
2022-07-30T07:33:17.653Z,20.82
2022-07-30T07:38:21.966Z,21.02
2022-07-30T07:43:26.839Z,21.11
2022-07-30T07:48:32.858Z,21.13
2022-07-30T07:54:20.319Z,21.28
2022-07-30T07:59:39.983Z,21.47
2022-07-30T08:05:06.068Z,21.59
2022-07-30T08:10:32.482Z,21.50
2022-07-30T08:16:06.664Z,21.68
2022-07-30T08:21:28.822Z,21.74
2022-07-30T08:26:32.230Z,21.80
2022-07-30T08:31:37.521Z,21.68
2022-07-30T08:36:41.951Z,21.65
2022-07-30T08:41:45.447Z,21.53
2022-07-30T08:46:53.513Z,21.37
2022-07-30T08:52:20.290Z,21.23
2022-07-30T08:57:35.684Z,21.00
2022-07-30T09:02:39.321Z,20.99
2022-07-30T09:07:43.917Z,20.97
2022-07-30T09:12:52.329Z,21.20
2022-07-30T09:18:00.817Z,20.92
2022-07-30T09:23:06.513Z,20.64
2022-07-30T09:28:30.965Z,20.51
2022-07-30T09:33:52.698Z,20.39
2022-07-30T09:39:38.078Z,20.13
2022-07-30T09:45:09.012Z,19.98
2022-07-30T09:50:17.950Z,19.73
2022-07-30T09:55:41.360Z,19.46
2022-07-30T10:00:58.224Z,19.30
2022-07-30T10:06:34.784Z,19.28
2022-07-30T10:11:42.926Z,19.31
2022-07-30T10:16:49.393Z,19.42
2022-07-30T10:21:58.347Z,19.52
2022-07-30T10:27:41.378Z,19.43
2022-07-30T10:33:00.115Z,19.33
2022-07-30T10:38:08.754Z,19.11
2022-07-30T10:43:32.854Z,19.12
2022-07-30T10:48:36.295Z,18.91
2022-07-30T10:53:42.936Z,18.82
2022-07-30T10:59:09.437Z,18.84
2022-07-30T11:04:33.963Z,18.82
2022-07-30T11:09:42.818Z,18.96
2022-07-30T11:14:46.616Z,19.07
2022-07-30T11:20:05.302Z,19.08
2022-07-30T11:25:12.641Z,19.10
2022-07-30T11:30:17.148Z,19.18
2022-07-30T11:35:34.939Z,18.97
2022-07-30T11:41:01.350Z,18.79
2022-07-30T11:46:28.949Z,18.84
2022-07-30T11:51:44.996Z,18.95
2022-07-30T11:56:54.359Z,19.12
2022-07-30T12:02:01.114Z,19.01
2022-07-30T12:07:04.719Z,18.91
2022-07-30T12:12:24.423Z,18.89
2022-07-30T12:17:44.878Z,18.82
2022-07-30T12:22:48.234Z,18.73
2022-07-30T12:27:52.387Z,18.67
2022-07-30T12:32:55.682Z,18.72
2022-07-30T12:38:04.637Z,18.76
2022-07-30T12:43:13.656Z,18.87
2022-07-30T12:48:17.299Z,18.89
2022-07-30T12:53:29.878Z,18.80
2022-07-30T12:58:38.343Z,18.69
2022-07-30T13:03:42.363Z,18.59
2022-07-30T13:08:55.052Z,18.52
2022-07-30T13:13:58.341Z,18.43
2022-07-30T13:19:03.353Z,18.36
2022-07-30T13:24:07.750Z,18.28
2022-07-30T13:29:13.857Z,18.22
2022-07-30T13:34:17.340Z,18.19
2022-07-30T13:39:20.716Z,18.17
2022-07-30T13:44:24.134Z,18.09
2022-07-30T13:49:27.651Z,18.04
2022-07-30T13:54:57.900Z,18.00
2022-07-30T14:00:11.434Z,17.93
2022-07-30T14:05:15.412Z,17.86
2022-07-30T14:10:28.525Z,17.79
2022-07-30T14:15:34.775Z,17.77
2022-07-30T14:20:39.703Z,17.72
2022-07-30T14:25:45.339Z,17.65
2022-07-30T14:30:49.460Z,17.53
2022-07-30T14:35:57.553Z,17.43
2022-07-30T14:41:05.854Z,17.32
2022-07-30T14:46:09.388Z,17.32
2022-07-30T14:51:17.932Z,17.25
2022-07-30T14:56:26.545Z,17.18
2022-07-30T15:01:30.270Z,17.09
2022-07-30T15:06:34.056Z,17.03
2022-07-30T15:12:04.325Z,17.01
2022-07-30T15:17:04.226Z,17.00
2022-07-30T15:22:08.141Z,17.00
2022-07-30T15:27:14.228Z,17.01
2022-07-30T15:32:19.643Z,17.00
2022-07-30T15:37:23.019Z,17.01
2022-07-30T15:42:31.385Z,17.01
2022-07-30T15:47:36.525Z,17.01
2022-07-30T15:52:39.886Z,16.96
2022-07-30T15:57:43.582Z,16.94
2022-07-30T16:02:46.904Z,16.89
